sensor_id;sensor_type;location;lat;lon;timestamp;temperature;humidity
23143;DHT22;11740;51.168;4.112;2023-01-09T00:00:46;6.30;99.90
23143;DHT22;11740;51.168;4.112;2023-01-09T00:03:13;6.20;99.90
23143;DHT22;11740;51.168;4.112;2023-01-09T00:05:40;6.20;99.90
23143;DHT22;11740;51.168;4.112;2023-01-09T00:08:06;6.20;99.90
23143;DHT22;11740;51.168;4.112;2023-01-09T00:10:33;6.20;99.90
23143;DHT22;11740;51.168;4.112;2023-01-09T00:13:00;6.10;99.90
23143;DHT22;11740;51.168;4.112;2023-01-09T00:15:27;6.10;1.00
23143;DHT22;11740;51.168;4.112;2023-01-09T00:17:54;6.00;1.00
23143;DHT22;11740;51.168;4.112;2023-01-09T00:20:21;6.00;1.00
23143;DHT22;11740;51.168;4.112;2023-01-09T00:22:48;6.00;1.00
23143;DHT22;11740;51.168;4.112;2023-01-09T00:25:17;6.00;1.00
23143;DHT22;11740;51.168;4.112;2023-01-09T00:27:45;6.00;1.00
23143;DHT22;11740;51.168;4.112;2023-01-09T00:30:12;6.00;1.00
23143;DHT22;11740;51.168;4.112;2023-01-09T00:32:39;5.90;1.00
23143;DHT22;11740;51.168;4.112;2023-01-09T00:35:06;5.90;1.00
23143;DHT22;11740;51.168;4.112;2023-01-09T00:37:37;5.90;1.00
23143;DHT22;11740;51.168;4.112;2023-01-09T00:40:04;5.90;1.00
23143;DHT22;11740;51.168;4.112;2023-01-09T00:42:31;5.90;1.00
23143;DHT22;11740;51.168;4.112;2023-01-09T00:45:00;5.90;1.00
23143;DHT22;11740;51.168;4.112;2023-01-09T00:47:33;5.90;1.00
23143;DHT22;11740;51.168;4.112;2023-01-09T00:50:03;5.90;1.00
23143;DHT22;11740;51.168;4.112;2023-01-09T00:52:32;5.80;1.00
23143;DHT22;11740;51.168;4.112;2023-01-09T00:55:01;5.80;1.00
23143;DHT22;11740;51.168;4.112;2023-01-09T00:57:30;5.70;1.00
23143;DHT22;11740;51.168;4.112;2023-01-09T00:59:58;5.80;1.00
23143;DHT22;11740;51.168;4.112;2023-01-09T01:02:25;5.70;1.00
23143;DHT22;11740;51.168;4.112;2023-01-09T01:04:52;5.70;1.00
23143;DHT22;11740;51.168;4.112;2023-01-09T01:07:38;5.70;1.00
23143;DHT22;11740;51.168;4.112;2023-01-09T01:10:16;5.60;1.00
23143;DHT22;11740;51.168;4.112;2023-01-09T01:12:46;5.60;1.00
23143;DHT22;11740;51.168;4.112;2023-01-09T01:15:14;5.60;1.00
23143;DHT22;11740;51.168;4.112;2023-01-09T01:17:41;5.50;1.00
23143;DHT22;11740;51.168;4.112;2023-01-09T01:20:10;5.50;1.00
23143;DHT22;11740;51.168;4.112;2023-01-09T01:22:38;5.50;1.00
23143;DHT22;11740;51.168;4.112;2023-01-09T01:25:08;5.40;1.00
23143;DHT22;11740;51.168;4.112;2023-01-09T01:27:36;5.40;1.00
23143;DHT22;11740;51.168;4.112;2023-01-09T01:30:04;5.40;1.00
23143;DHT22;11740;51.168;4.112;2023-01-09T01:32:32;5.40;1.00
23143;DHT22;11740;51.168;4.112;2023-01-09T01:35:00;5.40;1.00
23143;DHT22;11740;51.168;4.112;2023-01-09T01:37:26;5.40;1.00
23143;DHT22;11740;51.168;4.112;2023-01-09T01:39:56;5.40;1.00
23143;DHT22;11740;51.168;4.112;2023-01-09T01:42:23;5.30;1.00
23143;DHT22;11740;51.168;4.112;2023-01-09T01:47:34;5.30;1.00
23143;DHT22;11740;51.168;4.112;2023-01-09T01:50:07;5.30;1.00
23143;DHT22;11740;51.168;4.112;2023-01-09T01:52:40;5.30;1.00
23143;DHT22;11740;51.168;4.112;2023-01-09T01:55:07;5.30;1.00
23143;DHT22;11740;51.168;4.112;2023-01-09T01:57:35;5.20;1.00
23143;DHT22;11740;51.168;4.112;2023-01-09T02:00:03;5.20;1.00
23143;DHT22;11740;51.168;4.112;2023-01-09T02:02:31;5.20;1.00
23143;DHT22;11740;51.168;4.112;2023-01-09T02:04:58;5.20;1.00
23143;DHT22;11740;51.168;4.112;2023-01-09T02:07:25;5.20;1.00
23143;DHT22;11740;51.168;4.112;2023-01-09T02:09:53;5.20;30.60
23143;DHT22;11740;51.168;4.112;2023-01-09T02:14:58;5.20;40.10
23143;DHT22;11740;51.168;4.112;2023-01-09T02:17:52;5.20;56.90
23143;DHT22;11740;51.168;4.112;2023-01-09T02:21:00;5.20;99.90
23143;DHT22;11740;51.168;4.112;2023-01-09T02:26:50;5.20;99.90
23143;DHT22;11740;51.168;4.112;2023-01-09T02:38:02;5.30;99.90
23143;DHT22;11740;51.168;4.112;2023-01-09T02:43:28;5.30;99.90
23143;DHT22;11740;51.168;4.112;2023-01-09T02:45:55;5.30;99.90
23143;DHT22;11740;51.168;4.112;2023-01-09T02:48:22;5.30;99.90
23143;DHT22;11740;51.168;4.112;2023-01-09T02:51:08;5.40;99.90
23143;DHT22;11740;51.168;4.112;2023-01-09T02:53:44;5.30;99.90
23143;DHT22;11740;51.168;4.112;2023-01-09T02:59:16;5.40;86.80
23143;DHT22;11740;51.168;4.112;2023-01-09T03:09:49;5.40;99.90
23143;DHT22;11740;51.168;4.112;2023-01-09T03:12:21;5.40;99.90
23143;DHT22;11740;51.168;4.112;2023-01-09T03:14:50;5.40;99.90
23143;DHT22;11740;51.168;4.112;2023-01-09T03:17:24;5.50;99.90
23143;DHT22;11740;51.168;4.112;2023-01-09T03:19:53;5.50;99.90
23143;DHT22;11740;51.168;4.112;2023-01-09T03:22:21;5.50;99.90
23143;DHT22;11740;51.168;4.112;2023-01-09T03:24:48;5.50;99.90
23143;DHT22;11740;51.168;4.112;2023-01-09T03:27:15;5.50;99.90
23143;DHT22;11740;51.168;4.112;2023-01-09T03:29:42;5.50;78.00
23143;DHT22;11740;51.168;4.112;2023-01-09T03:32:08;5.50;99.90
23143;DHT22;11740;51.168;4.112;2023-01-09T03:34:35;5.50;90.30
23143;DHT22;11740;51.168;4.112;2023-01-09T03:37:02;5.50;81.60
23143;DHT22;11740;51.168;4.112;2023-01-09T03:39:30;5.60;29.50
23143;DHT22;11740;51.168;4.112;2023-01-09T03:41:57;5.60;9.60
23143;DHT22;11740;51.168;4.112;2023-01-09T03:44:24;5.60;25.20
23143;DHT22;11740;51.168;4.112;2023-01-09T03:46:51;5.60;1.00
23143;DHT22;11740;51.168;4.112;2023-01-09T03:49:18;5.60;1.00
23143;DHT22;11740;51.168;4.112;2023-01-09T03:51:45;5.60;1.00
23143;DHT22;11740;51.168;4.112;2023-01-09T03:54:12;5.60;1.00
23143;DHT22;11740;51.168;4.112;2023-01-09T03:56:39;5.60;1.00
23143;DHT22;11740;51.168;4.112;2023-01-09T03:59:06;5.60;1.00
23143;DHT22;11740;51.168;4.112;2023-01-09T04:01:33;5.60;1.00
23143;DHT22;11740;51.168;4.112;2023-01-09T04:04:00;5.70;1.00
23143;DHT22;11740;51.168;4.112;2023-01-09T04:06:27;5.60;1.00
23143;DHT22;11740;51.168;4.112;2023-01-09T04:08:54;5.60;1.00
23143;DHT22;11740;51.168;4.112;2023-01-09T04:11:21;5.70;1.00
23143;DHT22;11740;51.168;4.112;2023-01-09T04:13:48;5.70;1.00
23143;DHT22;11740;51.168;4.112;2023-01-09T04:16:15;5.70;1.00
23143;DHT22;11740;51.168;4.112;2023-01-09T04:18:41;5.70;1.00
23143;DHT22;11740;51.168;4.112;2023-01-09T04:21:08;5.70;1.00
23143;DHT22;11740;51.168;4.112;2023-01-09T04:23:35;5.70;1.00
23143;DHT22;11740;51.168;4.112;2023-01-09T04:26:02;5.70;1.00
23143;DHT22;11740;51.168;4.112;2023-01-09T04:28:29;5.70;1.00
23143;DHT22;11740;51.168;4.112;2023-01-09T04:30:56;5.80;1.00
23143;DHT22;11740;51.168;4.112;2023-01-09T04:33:23;5.80;1.00
23143;DHT22;11740;51.168;4.112;2023-01-09T04:35:50;5.80;1.00
23143;DHT22;11740;51.168;4.112;2023-01-09T04:38:17;5.80;1.00
23143;DHT22;11740;51.168;4.112;2023-01-09T04:40:45;5.90;1.00
23143;DHT22;11740;51.168;4.112;2023-01-09T04:43:13;5.90;1.00
23143;DHT22;11740;51.168;4.112;2023-01-09T04:45:40;5.90;1.00
23143;DHT22;11740;51.168;4.112;2023-01-09T04:48:07;5.90;1.00
23143;DHT22;11740;51.168;4.112;2023-01-09T04:50:34;6.00;1.00
23143;DHT22;11740;51.168;4.112;2023-01-09T04:53:01;6.10;1.00
23143;DHT22;11740;51.168;4.112;2023-01-09T04:55:28;6.10;1.00
23143;DHT22;11740;51.168;4.112;2023-01-09T04:57:55;6.10;2.40
23143;DHT22;11740;51.168;4.112;2023-01-09T05:00:22;6.00;18.90
23143;DHT22;11740;51.168;4.112;2023-01-09T05:02:49;6.10;14.80
23143;DHT22;11740;51.168;4.112;2023-01-09T05:05:16;6.10;70.60
23143;DHT22;11740;51.168;4.112;2023-01-09T05:07:42;6.10;99.90
23143;DHT22;11740;51.168;4.112;2023-01-09T05:10:10;6.10;99.90
23143;DHT22;11740;51.168;4.112;2023-01-09T05:12:37;6.20;78.20
23143;DHT22;11740;51.168;4.112;2023-01-09T05:15:05;6.20;25.40
23143;DHT22;11740;51.168;4.112;2023-01-09T05:17:32;6.20;99.90
23143;DHT22;11740;51.168;4.112;2023-01-09T05:19:59;6.20;89.20
23143;DHT22;11740;51.168;4.112;2023-01-09T05:22:26;6.20;99.90
23143;DHT22;11740;51.168;4.112;2023-01-09T05:24:53;6.30;99.90
23143;DHT22;11740;51.168;4.112;2023-01-09T05:27:20;6.30;99.90
23143;DHT22;11740;51.168;4.112;2023-01-09T05:29:47;6.20;99.90
23143;DHT22;11740;51.168;4.112;2023-01-09T05:32:14;6.20;99.90
23143;DHT22;11740;51.168;4.112;2023-01-09T05:34:41;6.20;99.90
23143;DHT22;11740;51.168;4.112;2023-01-09T05:37:08;6.30;99.90
23143;DHT22;11740;51.168;4.112;2023-01-09T05:39:35;6.30;99.90
23143;DHT22;11740;51.168;4.112;2023-01-09T05:42:02;6.30;99.90
23143;DHT22;11740;51.168;4.112;2023-01-09T05:44:29;6.40;99.90
23143;DHT22;11740;51.168;4.112;2023-01-09T05:46:55;6.40;99.90
23143;DHT22;11740;51.168;4.112;2023-01-09T05:49:22;6.30;99.90
23143;DHT22;11740;51.168;4.112;2023-01-09T05:51:49;6.40;99.90
23143;DHT22;11740;51.168;4.112;2023-01-09T05:54:16;6.40;99.90
23143;DHT22;11740;51.168;4.112;2023-01-09T05:56:43;6.40;99.90
23143;DHT22;11740;51.168;4.112;2023-01-09T05:59:10;6.40;99.90
23143;DHT22;11740;51.168;4.112;2023-01-09T06:01:37;6.40;99.90
23143;DHT22;11740;51.168;4.112;2023-01-09T06:04:04;6.40;99.90
23143;DHT22;11740;51.168;4.112;2023-01-09T06:06:31;6.40;99.90
23143;DHT22;11740;51.168;4.112;2023-01-09T06:08:57;6.40;1.00
23143;DHT22;11740;51.168;4.112;2023-01-09T06:11:24;6.40;1.00
23143;DHT22;11740;51.168;4.112;2023-01-09T06:13:52;6.30;1.00
23143;DHT22;11740;51.168;4.112;2023-01-09T06:16:19;6.30;99.90
23143;DHT22;11740;51.168;4.112;2023-01-09T06:18:46;6.30;1.00
23143;DHT22;11740;51.168;4.112;2023-01-09T06:21:13;6.30;1.00
23143;DHT22;11740;51.168;4.112;2023-01-09T06:23:42;6.30;1.00
23143;DHT22;11740;51.168;4.112;2023-01-09T06:26:09;6.30;1.00
23143;DHT22;11740;51.168;4.112;2023-01-09T06:28:36;6.30;1.00
23143;DHT22;11740;51.168;4.112;2023-01-09T06:31:03;6.30;1.00
23143;DHT22;11740;51.168;4.112;2023-01-09T06:33:30;6.40;1.00
23143;DHT22;11740;51.168;4.112;2023-01-09T06:35:58;6.40;1.00
23143;DHT22;11740;51.168;4.112;2023-01-09T06:38:24;6.40;1.00
23143;DHT22;11740;51.168;4.112;2023-01-09T06:40:51;6.40;1.00
23143;DHT22;11740;51.168;4.112;2023-01-09T06:43:18;6.40;1.00
23143;DHT22;11740;51.168;4.112;2023-01-09T06:45:45;6.40;1.00
23143;DHT22;11740;51.168;4.112;2023-01-09T06:48:12;6.50;1.00
23143;DHT22;11740;51.168;4.112;2023-01-09T06:50:39;6.50;1.00
23143;DHT22;11740;51.168;4.112;2023-01-09T06:53:06;6.50;23.50
23143;DHT22;11740;51.168;4.112;2023-01-09T06:55:33;6.40;79.70
23143;DHT22;11740;51.168;4.112;2023-01-09T06:58:00;6.50;99.90
23143;DHT22;11740;51.168;4.112;2023-01-09T07:00:27;6.50;99.90
23143;DHT22;11740;51.168;4.112;2023-01-09T07:02:55;6.50;99.90
23143;DHT22;11740;51.168;4.112;2023-01-09T07:05:21;6.50;99.90
23143;DHT22;11740;51.168;4.112;2023-01-09T07:07:48;6.50;99.90
23143;DHT22;11740;51.168;4.112;2023-01-09T07:10:15;6.50;99.90
23143;DHT22;11740;51.168;4.112;2023-01-09T07:12:42;6.60;1.00
23143;DHT22;11740;51.168;4.112;2023-01-09T07:15:09;6.60;1.00
23143;DHT22;11740;51.168;4.112;2023-01-09T07:17:36;6.60;1.00
23143;DHT22;11740;51.168;4.112;2023-01-09T07:20:03;6.60;1.00
23143;DHT22;11740;51.168;4.112;2023-01-09T07:22:31;6.60;1.00
23143;DHT22;11740;51.168;4.112;2023-01-09T07:24:58;6.60;1.00
23143;DHT22;11740;51.168;4.112;2023-01-09T07:27:24;6.60;1.00
23143;DHT22;11740;51.168;4.112;2023-01-09T07:29:51;6.60;1.00
23143;DHT22;11740;51.168;4.112;2023-01-09T07:32:18;6.60;1.00
23143;DHT22;11740;51.168;4.112;2023-01-09T07:34:45;6.60;1.00
23143;DHT22;11740;51.168;4.112;2023-01-09T07:37:12;6.60;1.00
23143;DHT22;11740;51.168;4.112;2023-01-09T07:39:39;6.60;1.00
23143;DHT22;11740;51.168;4.112;2023-01-09T07:42:06;6.60;1.00
23143;DHT22;11740;51.168;4.112;2023-01-09T07:44:33;6.60;1.00
23143;DHT22;11740;51.168;4.112;2023-01-09T07:47:00;6.60;1.00
23143;DHT22;11740;51.168;4.112;2023-01-09T07:49:27;6.60;1.00
23143;DHT22;11740;51.168;4.112;2023-01-09T07:51:54;6.60;1.00
23143;DHT22;11740;51.168;4.112;2023-01-09T07:54:21;6.60;1.00
23143;DHT22;11740;51.168;4.112;2023-01-09T07:56:48;6.60;1.00
23143;DHT22;11740;51.168;4.112;2023-01-09T07:59:15;6.60;1.00
23143;DHT22;11740;51.168;4.112;2023-01-09T08:01:41;6.50;1.00
23143;DHT22;11740;51.168;4.112;2023-01-09T08:04:08;6.50;1.00
23143;DHT22;11740;51.168;4.112;2023-01-09T08:06:36;6.60;1.00
23143;DHT22;11740;51.168;4.112;2023-01-09T08:09:03;6.60;1.00
23143;DHT22;11740;51.168;4.112;2023-01-09T08:11:29;6.60;99.90
23143;DHT22;11740;51.168;4.112;2023-01-09T08:13:57;6.60;99.90
23143;DHT22;11740;51.168;4.112;2023-01-09T08:16:24;6.60;99.90
23143;DHT22;11740;51.168;4.112;2023-01-09T08:18:51;6.60;99.90
23143;DHT22;11740;51.168;4.112;2023-01-09T08:21:18;6.60;99.90
23143;DHT22;11740;51.168;4.112;2023-01-09T08:23:45;6.60;99.90
23143;DHT22;11740;51.168;4.112;2023-01-09T08:26:12;6.60;99.90
23143;DHT22;11740;51.168;4.112;2023-01-09T08:28:39;6.70;99.90
23143;DHT22;11740;51.168;4.112;2023-01-09T08:31:05;6.70;99.90
23143;DHT22;11740;51.168;4.112;2023-01-09T08:33:33;6.70;99.90
23143;DHT22;11740;51.168;4.112;2023-01-09T08:35:59;6.70;35.90
23143;DHT22;11740;51.168;4.112;2023-01-09T08:38:26;6.70;75.00
23143;DHT22;11740;51.168;4.112;2023-01-09T08:40:53;6.70;53.10
23143;DHT22;11740;51.168;4.112;2023-01-09T08:43:20;6.70;21.30
23143;DHT22;11740;51.168;4.112;2023-01-09T08:46:10;6.70;9.90
23143;DHT22;11740;51.168;4.112;2023-01-09T08:49:01;6.70;1.00
23143;DHT22;11740;51.168;4.112;2023-01-09T08:51:28;6.70;2.80
23143;DHT22;11740;51.168;4.112;2023-01-09T08:53:55;6.70;73.50
23143;DHT22;11740;51.168;4.112;2023-01-09T08:56:22;6.70;99.90
23143;DHT22;11740;51.168;4.112;2023-01-09T08:58:49;6.70;99.90
23143;DHT22;11740;51.168;4.112;2023-01-09T09:01:15;6.70;99.90
23143;DHT22;11740;51.168;4.112;2023-01-09T09:03:44;6.70;99.90
23143;DHT22;11740;51.168;4.112;2023-01-09T09:06:11;6.70;99.90
23143;DHT22;11740;51.168;4.112;2023-01-09T09:08:37;6.70;99.90
23143;DHT22;11740;51.168;4.112;2023-01-09T09:11:04;6.70;99.90
23143;DHT22;11740;51.168;4.112;2023-01-09T09:13:31;6.70;99.90
23143;DHT22;11740;51.168;4.112;2023-01-09T09:15:58;6.70;99.90
23143;DHT22;11740;51.168;4.112;2023-01-09T09:18:25;6.70;99.90
23143;DHT22;11740;51.168;4.112;2023-01-09T09:20:52;6.70;99.90
23143;DHT22;11740;51.168;4.112;2023-01-09T09:23:19;6.70;99.90
23143;DHT22;11740;51.168;4.112;2023-01-09T09:25:46;6.70;99.90
23143;DHT22;11740;51.168;4.112;2023-01-09T09:28:13;6.70;99.90
23143;DHT22;11740;51.168;4.112;2023-01-09T09:30:40;6.70;99.90
23143;DHT22;11740;51.168;4.112;2023-01-09T09:33:06;6.70;99.90
23143;DHT22;11740;51.168;4.112;2023-01-09T09:35:41;6.70;99.90
23143;DHT22;11740;51.168;4.112;2023-01-09T09:38:08;6.70;99.90
23143;DHT22;11740;51.168;4.112;2023-01-09T09:47:09;6.80;99.90
23143;DHT22;11740;51.168;4.112;2023-01-09T09:49:22;6.80;99.90
23143;DHT22;11740;51.168;4.112;2023-01-09T09:52:03;6.80;99.90
23143;DHT22;11740;51.168;4.112;2023-01-09T09:54:39;6.90;99.90
23143;DHT22;11740;51.168;4.112;2023-01-09T09:57:13;6.90;99.90
23143;DHT22;11740;51.168;4.112;2023-01-09T09:59:42;6.90;99.90
23143;DHT22;11740;51.168;4.112;2023-01-09T10:02:29;6.90;99.90
23143;DHT22;11740;51.168;4.112;2023-01-09T10:05:05;6.90;99.90
23143;DHT22;11740;51.168;4.112;2023-01-09T10:07:38;6.90;99.90
23143;DHT22;11740;51.168;4.112;2023-01-09T10:10:13;6.90;27.10
23143;DHT22;11740;51.168;4.112;2023-01-09T10:12:49;6.90;13.70
23143;DHT22;11740;51.168;4.112;2023-01-09T10:15:25;6.90;1.00
23143;DHT22;11740;51.168;4.112;2023-01-09T10:18:10;6.90;12.60
23143;DHT22;11740;51.168;4.112;2023-01-09T10:26:41;7.00;96.20
23143;DHT22;11740;51.168;4.112;2023-01-09T10:31:57;7.00;30.50
23143;DHT22;11740;51.168;4.112;2023-01-09T10:37:14;7.10;1.00
23143;DHT22;11740;51.168;4.112;2023-01-09T10:44:55;7.10;1.00
23143;DHT22;11740;51.168;4.112;2023-01-09T10:47:37;7.20;1.00
23143;DHT22;11740;51.168;4.112;2023-01-09T10:50:14;7.30;1.00
23143;DHT22;11740;51.168;4.112;2023-01-09T10:52:42;7.30;1.00
23143;DHT22;11740;51.168;4.112;2023-01-09T10:57:52;7.30;1.00
23143;DHT22;11740;51.168;4.112;2023-01-09T11:00:21;7.40;1.00
23143;DHT22;11740;51.168;4.112;2023-01-09T11:02:52;7.40;1.00
23143;DHT22;11740;51.168;4.112;2023-01-09T11:05:22;7.40;1.00
23143;DHT22;11740;51.168;4.112;2023-01-09T11:08:02;7.50;1.00
23143;DHT22;11740;51.168;4.112;2023-01-09T11:13:17;7.50;99.90
23143;DHT22;11740;51.168;4.112;2023-01-09T11:15:45;7.50;1.00
23143;DHT22;11740;51.168;4.112;2023-01-09T11:18:19;7.50;99.90
23143;DHT22;11740;51.168;4.112;2023-01-09T11:20:50;7.50;1.00
23143;DHT22;11740;51.168;4.112;2023-01-09T11:23:25;7.50;1.00
23143;DHT22;11740;51.168;4.112;2023-01-09T11:25:55;7.50;1.00
23143;DHT22;11740;51.168;4.112;2023-01-09T11:28:24;7.50;1.00
23143;DHT22;11740;51.168;4.112;2023-01-09T11:30:56;7.60;1.00
23143;DHT22;11740;51.168;4.112;2023-01-09T11:33:23;7.60;1.00
23143;DHT22;11740;51.168;4.112;2023-01-09T11:36:01;7.60;1.00
23143;DHT22;11740;51.168;4.112;2023-01-09T11:38:32;7.60;1.00
23143;DHT22;11740;51.168;4.112;2023-01-09T11:41:22;7.60;1.00
23143;DHT22;11740;51.168;4.112;2023-01-09T11:43:55;7.70;1.00
23143;DHT22;11740;51.168;4.112;2023-01-09T11:46:34;7.60;99.90
23143;DHT22;11740;51.168;4.112;2023-01-09T11:51:40;7.60;99.90
23143;DHT22;11740;51.168;4.112;2023-01-09T11:56:42;7.60;99.90
23143;DHT22;11740;51.168;4.112;2023-01-09T11:59:11;7.60;1.00
23143;DHT22;11740;51.168;4.112;2023-01-09T12:04:39;7.70;1.00
23143;DHT22;11740;51.168;4.112;2023-01-09T12:07:24;7.70;1.00
23143;DHT22;11740;51.168;4.112;2023-01-09T12:12:57;7.70;99.90
23143;DHT22;11740;51.168;4.112;2023-01-09T12:15:45;7.80;1.00
23143;DHT22;11740;51.168;4.112;2023-01-09T12:21:10;7.80;99.90
23143;DHT22;11740;51.168;4.112;2023-01-09T12:49:29;7.90;1.00
23143;DHT22;11740;51.168;4.112;2023-01-09T12:52:03;7.90;1.00
23143;DHT22;11740;51.168;4.112;2023-01-09T12:54:45;8.00;1.00
23143;DHT22;11740;51.168;4.112;2023-01-09T12:59:57;8.00;1.00
23143;DHT22;11740;51.168;4.112;2023-01-09T13:02:46;8.00;1.00
23143;DHT22;11740;51.168;4.112;2023-01-09T13:05:33;8.00;1.00
23143;DHT22;11740;51.168;4.112;2023-01-09T13:08:04;8.10;1.00
23143;DHT22;11740;51.168;4.112;2023-01-09T13:10:55;8.10;1.00
23143;DHT22;11740;51.168;4.112;2023-01-09T13:13:38;8.10;1.00
23143;DHT22;11740;51.168;4.112;2023-01-09T13:16:17;8.20;1.00
23143;DHT22;11740;51.168;4.112;2023-01-09T13:19:04;8.30;99.90
23143;DHT22;11740;51.168;4.112;2023-01-09T13:21:39;8.40;99.90
23143;DHT22;11740;51.168;4.112;2023-01-09T13:24:09;8.50;99.90
23143;DHT22;11740;51.168;4.112;2023-01-09T13:29:25;8.80;1.00
23143;DHT22;11740;51.168;4.112;2023-01-09T13:34:36;8.70;1.00
23143;DHT22;11740;51.168;4.112;2023-01-09T13:37:04;8.60;1.00
23143;DHT22;11740;51.168;4.112;2023-01-09T13:39:31;8.60;1.00
23143;DHT22;11740;51.168;4.112;2023-01-09T13:42:04;8.50;1.00
23143;DHT22;11740;51.168;4.112;2023-01-09T13:44:54;8.50;1.00
23143;DHT22;11740;51.168;4.112;2023-01-09T13:47:22;8.50;99.90
23143;DHT22;11740;51.168;4.112;2023-01-09T14:11:00;8.50;99.90
23143;DHT22;11740;51.168;4.112;2023-01-09T14:13:29;8.50;99.90
23143;DHT22;11740;51.168;4.112;2023-01-09T14:16:05;8.50;99.90
23143;DHT22;11740;51.168;4.112;2023-01-09T14:18:35;8.50;99.90
23143;DHT22;11740;51.168;4.112;2023-01-09T14:21:09;8.60;99.90
23143;DHT22;11740;51.168;4.112;2023-01-09T14:23:46;8.60;99.90
23143;DHT22;11740;51.168;4.112;2023-01-09T14:26:20;8.60;99.90
23143;DHT22;11740;51.168;4.112;2023-01-09T14:28:48;8.60;99.90
23143;DHT22;11740;51.168;4.112;2023-01-09T14:31:26;8.50;99.90
23143;DHT22;11740;51.168;4.112;2023-01-09T14:34:37;8.60;99.90
23143;DHT22;11740;51.168;4.112;2023-01-09T14:36:58;8.50;2.50
23143;DHT22;11740;51.168;4.112;2023-01-09T14:39:28;8.40;1.00
23143;DHT22;11740;51.168;4.112;2023-01-09T14:42:00;8.40;33.60
23143;DHT22;11740;51.168;4.112;2023-01-09T14:47:43;8.40;99.90
23143;DHT22;11740;51.168;4.112;2023-01-09T14:52:52;8.50;99.90
23143;DHT22;11740;51.168;4.112;2023-01-09T14:55:25;8.50;1.00
23143;DHT22;11740;51.168;4.112;2023-01-09T14:57:53;8.50;1.00
23143;DHT22;11740;51.168;4.112;2023-01-09T15:00:22;8.40;1.00
23143;DHT22;11740;51.168;4.112;2023-01-09T15:02:49;8.40;75.00
23143;DHT22;11740;51.168;4.112;2023-01-09T15:05:18;8.40;99.90
23143;DHT22;11740;51.168;4.112;2023-01-09T15:07:52;8.40;99.90
23143;DHT22;11740;51.168;4.112;2023-01-09T15:10:22;8.40;99.90
23143;DHT22;11740;51.168;4.112;2023-01-09T15:12:52;8.40;99.90
23143;DHT22;11740;51.168;4.112;2023-01-09T15:15:20;8.30;99.90
23143;DHT22;11740;51.168;4.112;2023-01-09T15:17:54;8.30;99.90
23143;DHT22;11740;51.168;4.112;2023-01-09T15:20:25;8.30;99.90
23143;DHT22;11740;51.168;4.112;2023-01-09T15:22:54;8.30;99.90
23143;DHT22;11740;51.168;4.112;2023-01-09T15:25:28;8.20;99.90
23143;DHT22;11740;51.168;4.112;2023-01-09T15:31:10;8.10;99.90
23143;DHT22;11740;51.168;4.112;2023-01-09T15:33:43;8.10;1.00
23143;DHT22;11740;51.168;4.112;2023-01-09T15:36:14;8.10;1.00
23143;DHT22;11740;51.168;4.112;2023-01-09T15:38:43;8.10;1.00
23143;DHT22;11740;51.168;4.112;2023-01-09T15:41:13;8.00;1.00
23143;DHT22;11740;51.168;4.112;2023-01-09T15:44:02;8.00;1.00
23143;DHT22;11740;51.168;4.112;2023-01-09T15:46:30;7.90;1.00
23143;DHT22;11740;51.168;4.112;2023-01-09T15:48:57;7.90;99.90
23143;DHT22;11740;51.168;4.112;2023-01-09T15:51:25;7.80;1.00
23143;DHT22;11740;51.168;4.112;2023-01-09T15:53:52;7.80;1.00
23143;DHT22;11740;51.168;4.112;2023-01-09T15:56:27;7.80;1.00
23143;DHT22;11740;51.168;4.112;2023-01-09T15:58:56;7.70;1.00
23143;DHT22;11740;51.168;4.112;2023-01-09T16:01:27;7.70;1.00
23143;DHT22;11740;51.168;4.112;2023-01-09T16:04:03;7.70;1.00
23143;DHT22;11740;51.168;4.112;2023-01-09T16:06:41;7.70;1.00
23143;DHT22;11740;51.168;4.112;2023-01-09T16:09:14;7.80;1.00
23143;DHT22;11740;51.168;4.112;2023-01-09T16:11:49;7.70;1.00
23143;DHT22;11740;51.168;4.112;2023-01-09T16:14:21;7.70;1.00
23143;DHT22;11740;51.168;4.112;2023-01-09T16:16:50;7.70;1.00
23143;DHT22;11740;51.168;4.112;2023-01-09T16:19:28;7.80;1.00
23143;DHT22;11740;51.168;4.112;2023-01-09T16:21:56;7.80;1.00
23143;DHT22;11740;51.168;4.112;2023-01-09T16:24:33;7.80;1.00
23143;DHT22;11740;51.168;4.112;2023-01-09T16:27:19;7.70;93.50
23143;DHT22;11740;51.168;4.112;2023-01-09T16:29:56;7.80;50.70
23143;DHT22;11740;51.168;4.112;2023-01-09T16:32:26;7.70;99.90
23143;DHT22;11740;51.168;4.112;2023-01-09T16:35:04;7.70;99.90
23143;DHT22;11740;51.168;4.112;2023-01-09T16:37:33;7.60;99.90
23143;DHT22;11740;51.168;4.112;2023-01-09T16:42:32;7.50;1.00
23143;DHT22;11740;51.168;4.112;2023-01-09T16:45:17;7.50;99.90
23143;DHT22;11740;51.168;4.112;2023-01-09T16:47:44;7.50;99.90
23143;DHT22;11740;51.168;4.112;2023-01-09T16:50:12;7.50;99.90
23143;DHT22;11740;51.168;4.112;2023-01-09T16:52:39;7.40;99.90
23143;DHT22;11740;51.168;4.112;2023-01-09T16:55:06;7.40;55.70
23143;DHT22;11740;51.168;4.112;2023-01-09T16:57:33;7.40;1.00
23143;DHT22;11740;51.168;4.112;2023-01-09T17:00:00;7.40;1.00
23143;DHT22;11740;51.168;4.112;2023-01-09T17:02:27;7.40;1.00
23143;DHT22;11740;51.168;4.112;2023-01-09T17:04:54;7.40;1.00
23143;DHT22;11740;51.168;4.112;2023-01-09T17:07:22;7.40;1.00
23143;DHT22;11740;51.168;4.112;2023-01-09T17:09:51;7.40;1.00
23143;DHT22;11740;51.168;4.112;2023-01-09T17:12:20;7.40;1.00
23143;DHT22;11740;51.168;4.112;2023-01-09T17:14:49;7.40;1.00
23143;DHT22;11740;51.168;4.112;2023-01-09T17:17:16;7.40;1.00
23143;DHT22;11740;51.168;4.112;2023-01-09T17:19:43;7.30;5.00
23143;DHT22;11740;51.168;4.112;2023-01-09T17:22:12;7.40;99.90
23143;DHT22;11740;51.168;4.112;2023-01-09T17:24:39;7.30;99.90
23143;DHT22;11740;51.168;4.112;2023-01-09T17:27:26;7.30;99.90
23143;DHT22;11740;51.168;4.112;2023-01-09T17:30:17;7.30;99.90
23143;DHT22;11740;51.168;4.112;2023-01-09T17:32:45;7.30;1.00
23143;DHT22;11740;51.168;4.112;2023-01-09T17:35:13;7.20;1.00
23143;DHT22;11740;51.168;4.112;2023-01-09T17:37:41;7.20;1.00
23143;DHT22;11740;51.168;4.112;2023-01-09T17:40:19;7.20;1.00
23143;DHT22;11740;51.168;4.112;2023-01-09T17:42:47;7.20;1.00
23143;DHT22;11740;51.168;4.112;2023-01-09T17:45:14;7.20;1.00
23143;DHT22;11740;51.168;4.112;2023-01-09T17:47:41;7.20;1.00
23143;DHT22;11740;51.168;4.112;2023-01-09T17:50:16;7.20;1.00
23143;DHT22;11740;51.168;4.112;2023-01-09T17:52:45;7.20;1.00
23143;DHT22;11740;51.168;4.112;2023-01-09T17:55:13;7.20;99.90
23143;DHT22;11740;51.168;4.112;2023-01-09T17:57:40;7.20;99.90
23143;DHT22;11740;51.168;4.112;2023-01-09T18:00:42;7.20;99.90
23143;DHT22;11740;51.168;4.112;2023-01-09T18:03:04;7.20;1.00
23143;DHT22;11740;51.168;4.112;2023-01-09T18:05:34;7.10;1.00
23143;DHT22;11740;51.168;4.112;2023-01-09T18:08:02;7.10;1.00
23143;DHT22;11740;51.168;4.112;2023-01-09T18:10:31;7.20;1.00
23143;DHT22;11740;51.168;4.112;2023-01-09T18:12:58;7.10;1.00
23143;DHT22;11740;51.168;4.112;2023-01-09T18:15:25;7.00;1.00
23143;DHT22;11740;51.168;4.112;2023-01-09T18:17:51;7.00;1.00
23143;DHT22;11740;51.168;4.112;2023-01-09T18:20:18;7.00;1.00
23143;DHT22;11740;51.168;4.112;2023-01-09T18:22:45;7.00;1.00
23143;DHT22;11740;51.168;4.112;2023-01-09T18:25:13;7.00;1.00
23143;DHT22;11740;51.168;4.112;2023-01-09T18:27:39;6.90;1.00
23143;DHT22;11740;51.168;4.112;2023-01-09T18:30:07;6.90;1.00
23143;DHT22;11740;51.168;4.112;2023-01-09T18:32:34;6.80;1.00